Terminal Aerodrome Forecast
Issued by NWS Portland, OR

Current Version | Previous Version | Text Only | Print | Product List | Glossary On
Versions: 1 2 3 4 5 6 7 8 9 10 11 12 13 14 15 16
000
FTUS46 KPQR 262320
TAFTTD
TAF
KTTD 262320Z 2700/2724 VRB03KT P6SM SKC
     FM271100 VRB02KT P6SM BKN015
     FM271700 28003KT P6SM SCT015
     FM271900 31004KT P6SM SCT050=

USA.gov is the U.S. government's official web portal to all federal, state and local government web resources and services.